Midvalley, Pennsylvania
Current Conditions -  °F | °C
As of 1:15 AM on Monday 26 Jan 2015 (Local Time) from KHZL Reporting Station
Light Snow Light Snow  
Wind Chill: 19°   Ceiling: 2400
Heat Index: 19°   Visibility: 4mi
Dew Point: 14°   Wind: 3mph
Humidity: 80%   Direction: 30°NNE
Pressure: 29.9"   Gusts: NA
Location:  40.8229°N, 76.3735°W
Report Text: KHZL 260615Z AUTO 03003KT 4SM -SN SCT016 BKN024 OVC039 M07/M10 A2990 RMK AO2
Loading
Personal Weather Stations






























Interactive Weather Map New forecast layout! Learn more

10-Day Weather Forecast

Advertisements
Track Severe Weather on mobile